Time;durP1;ratioP1;P1;durP2;ratioP2;P2;SDS_P1;SDS_P2;PMS_P1;PMS_P2;Temp;Humidity;BMP_temperature;BMP_pressure;BME280_temperature;BME280_humidity;BME280_pressure;Samples;Min_cycle;Max_cycle;Signal;HPM_P1;HPM_P2
2022/10/04 00:01:54;;;;;;;4.82;1.70;;;12.50;99.90;;;;;;4985247;28;20060;-75
2022/10/04 00:04:21;;;;;;;7.88;2.70;;;12.50;99.90;;;;;;4997511;28;20042;-75
2022/10/04 00:06:53;;;;;;;5.28;1.90;;;12.50;99.90;;;;;;4999038;28;20383;-74
2022/10/04 00:09:23;;;;;;;3.75;1.27;;;12.50;99.90;;;;;;4996636;28;20053;-74
2022/10/04 00:11:53;;;;;;;3.00;1.15;;;12.40;99.90;;;;;;4997133;28;20041;-74
2022/10/04 00:14:34;;;;;;;5.13;1.60;;;12.40;99.90;;;;;;5000164;28;20052;-74
2022/10/04 00:17:12;;;;;;;4.25;1.60;;;12.40;99.90;;;;;;5012148;28;20088;-74
2022/10/04 00:19:47;;;;;;;4.95;1.40;;;12.40;99.90;;;;;;4999029;28;20327;-75
2022/10/04 00:22:32;;;;;;;5.05;1.50;;;12.40;99.90;;;;;;4982758;28;20049;-74
2022/10/04 00:25:12;;;;;;;4.13;1.30;;;12.40;99.90;;;;;;5015472;28;20555;-75
2022/10/04 00:27:59;;;;;;;3.33;1.35;;;12.50;99.90;;;;;;5009832;28;20430;-75
2022/10/04 00:30:36;;;;;;;2.03;0.75;;;12.40;99.90;;;;;;4999376;28;20046;-75
2022/10/04 00:33:03;;;;;;;4.57;1.45;;;12.50;99.90;;;;;;4999455;28;20084;-75
2022/10/04 00:35:44;;;;;;;4.85;1.10;;;12.40;99.90;;;;;;5000206;28;20040;-75
2022/10/04 00:38:15;;;;;;;3.13;1.10;;;12.40;99.90;;;;;;4994669;28;20057;-74
2022/10/04 00:40:56;;;;;;;2.50;0.80;;;12.40;99.90;;;;;;4999939;28;20576;-75
2022/10/04 00:43:31;;;;;;;3.28;1.00;;;12.40;99.90;;;;;;5013293;28;20049;-75
2022/10/04 00:46:17;;;;;;;3.28;1.10;;;12.40;99.90;;;;;;4998320;28;20049;-75
2022/10/04 00:48:51;;;;;;;6.22;1.42;;;12.40;99.90;;;;;;4992592;28;20041;-75
2022/10/04 00:51:20;;;;;;;3.05;1.02;;;12.30;99.90;;;;;;5014827;28;20046;-75
2022/10/04 00:53:56;;;;;;;3.15;1.13;;;12.30;99.90;;;;;;5000160;28;20051;-75
2022/10/04 00:56:35;;;;;;;4.35;1.70;;;12.30;99.90;;;;;;4999633;28;20133;-75
2022/10/04 00:59:04;;;;;;;4.47;1.30;;;12.20;99.90;;;;;;4993811;28;20045;-75
2022/10/04 01:01:34;;;;;;;2.35;0.80;;;12.20;99.90;;;;;;4998485;28;20712;-74
2022/10/04 01:04:04;;;;;;;2.53;1.00;;;12.20;99.90;;;;;;4983556;28;20041;-75
2022/10/04 01:06:33;;;;;;;4.28;1.35;;;12.20;99.90;;;;;;4999715;28;20159;-75
2022/10/04 01:09:06;;;;;;;3.88;1.10;;;12.20;99.90;;;;;;4993429;28;20480;-75
2022/10/04 01:11:43;;;;;;;3.83;1.00;;;12.20;99.90;;;;;;4998230;28;20041;-75
2022/10/04 01:14:20;;;;;;;3.70;1.13;;;12.20;99.90;;;;;;4999991;28;20041;-75
2022/10/04 01:16:46;;;;;;;6.57;2.17;;;12.20;99.90;;;;;;4997658;28;20038;-75
2022/10/04 01:19:28;;;;;;;4.60;1.50;;;12.20;99.90;;;;;;4994931;28;20500;-75
2022/10/04 01:22:34;;;;;;;5.75;1.42;;;12.20;99.90;;;;;;4999960;28;20049;-75
2022/10/04 01:25:01;;;;;;;3.65;1.23;;;12.20;99.90;;;;;;4998006;28;20042;-75
2022/10/04 01:27:31;;;;;;;3.75;1.33;;;12.20;99.90;;;;;;4975599;28;20485;-75
2022/10/04 01:29:57;;;;;;;4.60;1.30;;;12.20;99.90;;;;;;4996956;28;20125;-75
2022/10/04 01:32:24;;;;;;;5.55;1.73;;;12.20;99.90;;;;;;4999465;28;20041;-75
2022/10/04 01:34:50;;;;;;;4.07;1.23;;;12.20;99.90;;;;;;4999286;28;20045;-75
2022/10/04 01:37:17;;;;;;;4.53;1.13;;;12.10;99.90;;;;;;4993460;28;20045;-75
2022/10/04 01:39:43;;;;;;;3.50;1.00;;;12.20;99.90;;;;;;4998241;28;20049;-75
2022/10/04 01:42:25;;;;;;;3.92;0.93;;;12.10;99.90;;;;;;4999835;28;20461;-75
2022/10/04 01:44:55;;;;;;;2.37;0.87;;;12.10;99.90;;;;;;4999101;28;20046;-75
2022/10/04 01:47:47;;;;;;;2.53;1.02;;;12.10;99.90;;;;;;4993388;28;20046;-75
2022/10/04 01:50:26;;;;;;;2.03;0.88;;;12.00;99.90;;;;;;4981725;28;20045;-75
2022/10/04 01:53:00;;;;;;;5.45;1.38;;;12.00;99.90;;;;;;5012944;28;20042;-76
2022/10/04 01:55:34;;;;;;;3.28;1.08;;;12.00;99.90;;;;;;5003184;28;20379;-75
2022/10/04 01:58:33;;;;;;;3.65;1.17;;;11.90;99.90;;;;;;4995583;28;20038;-75
2022/10/04 02:01:06;;;;;;;3.05;0.90;;;11.90;99.90;;;;;;4995544;28;20057;-76
2022/10/04 02:03:39;;;;;;;4.47;1.35;;;11.80;99.90;;;;;;5002779;28;20069;-75
2022/10/04 02:06:09;;;;;;;3.03;1.17;;;11.80;99.90;;;;;;5005436;28;20048;-75
2022/10/04 02:08:39;;;;;;;5.95;1.92;;;11.80;99.90;;;;;;4996942;28;20540;-75
2022/10/04 02:11:07;;;;;;;6.05;1.52;;;11.80;99.90;;;;;;5001367;28;20042;-75
2022/10/04 02:13:38;;;;;;;4.65;1.20;;;11.80;99.90;;;;;;5002798;28;20589;-75
2022/10/04 02:16:10;;;;;;;5.15;1.13;;;11.80;99.90;;;;;;5002676;28;20155;-75
2022/10/04 02:18:38;;;;;;;3.72;0.95;;;11.80;99.90;;;;;;4995201;28;20045;-75
2022/10/04 02:21:06;;;;;;;3.30;1.40;;;11.80;99.90;;;;;;4985130;28;20145;-76
2022/10/04 02:23:34;;;;;;;3.05;0.90;;;11.80;99.90;;;;;;5001275;28;20038;-75
2022/10/04 02:26:08;;;;;;;3.22;0.90;;;11.80;99.90;;;;;;5017395;28;20053;-75
2022/10/04 02:28:35;;;;;;;3.05;1.13;;;11.80;99.90;;;;;;4997221;28;20045;-74
2022/10/04 02:33:51;;;;;;;3.60;1.38;;;11.80;99.90;;;;;;5000762;28;20675;-74
2022/10/04 02:36:23;;;;;;;2.55;1.20;;;11.70;99.90;;;;;;5001093;28;20604;-75
2022/10/04 02:39:17;;;;;;;4.10;1.50;;;11.70;99.90;;;;;;4994714;28;20052;-74
2022/10/04 02:41:49;;;;;;;5.13;1.13;;;11.70;99.90;;;;;;5001960;28;20029;-75
2022/10/04 02:44:39;;;;;;;5.00;1.13;;;11.70;99.90;;;;;;5016659;28;20046;-74
2022/10/04 02:47:19;;;;;;;3.72;1.40;;;11.60;99.90;;;;;;5000476;28;20046;-74
2022/10/04 02:50:15;;;;;;;4.93;1.10;;;11.60;99.90;;;;;;4999292;28;20042;-75
2022/10/04 02:52:46;;;;;;;3.97;1.30;;;11.50;99.90;;;;;;5001799;28;20060;-75
2022/10/04 02:55:26;;;;;;;5.35;1.65;;;11.40;99.90;;;;;;5002549;28;20045;-74
2022/10/04 02:57:53;;;;;;;3.17;1.00;;;11.40;99.90;;;;;;4994906;28;20038;-74
2022/10/04 03:00:30;;;;;;;3.97;1.10;;;11.40;99.90;;;;;;4999127;28;20057;-75
2022/10/04 03:03:23;;;;;;;3.22;1.30;;;11.30;99.90;;;;;;4999025;28;20049;-75
2022/10/04 03:06:10;;;;;;;2.88;1.15;;;11.30;99.90;;;;;;4999119;28;20217;-74
2022/10/04 03:08:44;;;;;;;2.92;1.27;;;11.30;99.90;;;;;;4994107;28;20053;-75
2022/10/04 03:11:12;;;;;;;3.17;1.00;;;11.20;99.90;;;;;;5000432;28;20046;-75
2022/10/04 03:13:43;;;;;;;4.93;1.30;;;11.20;99.90;;;;;;5001805;28;20046;-75
2022/10/04 03:16:10;;;;;;;4.78;1.75;;;11.20;99.90;;;;;;5000180;28;20076;-75
2022/10/04 03:18:36;;;;;;;5.78;1.50;;;11.20;99.90;;;;;;4995107;28;20040;-75
2022/10/04 03:21:08;;;;;;;4.00;1.80;;;11.20;99.90;;;;;;4983893;28;20053;-75
2022/10/04 03:23:35;;;;;;;3.05;1.83;;;11.20;99.90;;;;;;4999636;28;20480;-76
2022/10/04 03:26:37;;;;;;;6.05;2.17;;;11.10;99.90;;;;;;5001914;28;20038;-75
2022/10/04 03:29:09;;;;;;;4.45;1.63;;;11.10;99.90;;;;;;4996579;28;20503;-75
2022/10/04 03:31:42;;;;;;;4.65;1.85;;;11.10;99.90;;;;;;5002579;28;20045;-76
2022/10/04 03:34:18;;;;;;;5.43;2.53;;;11.00;99.90;;;;;;5000933;28;20045;-75
2022/10/04 03:36:48;;;;;;;4.60;1.85;;;11.00;99.90;;;;;;5000890;28;20503;-75
2022/10/04 03:39:37;;;;;;;5.50;2.80;;;10.90;99.90;;;;;;4995410;28;20052;-75
2022/10/04 03:42:10;;;;;;;3.50;1.60;;;10.90;99.90;;;;;;4999587;28;20057;-75
2022/10/04 03:44:37;;;;;;;4.72;1.30;;;10.80;99.90;;;;;;5016549;28;20038;-75
2022/10/04 03:47:10;;;;;;;3.72;1.33;;;10.80;99.90;;;;;;5014790;28;20045;-75
2022/10/04 03:49:37;;;;;;;4.10;1.30;;;10.70;99.90;;;;;;5001305;28;20054;-75
2022/10/04 03:52:06;;;;;;;2.60;1.17;;;10.60;99.90;;;;;;5001029;28;20038;-75
2022/10/04 03:54:33;;;;;;;3.95;1.30;;;10.60;99.90;;;;;;5001374;28;20284;-75
2022/10/04 03:57:01;;;;;;;4.03;1.10;;;10.60;99.90;;;;;;4980586;28;20048;-75
2022/10/04 03:59:27;;;;;;;4.50;1.95;;;10.50;99.90;;;;;;4997556;28;20046;-75
2022/10/04 04:02:20;;;;;;;4.57;1.58;;;10.50;99.90;;;;;;4999220;28;20078;-75
2022/10/04 04:05:09;;;;;;;7.88;2.70;;;10.40;99.90;;;;;;5016065;28;20041;-75
2022/10/04 04:07:46;;;;;;;4.47;2.00;;;10.40;99.90;;;;;;4997055;28;20046;-75
2022/10/04 04:10:28;;;;;;;4.47;2.40;;;10.30;99.90;;;;;;5001509;28;20042;-75
2022/10/04 04:12:59;;;;;;;3.25;1.77;;;10.30;99.90;;;;;;5002623;28;20034;-75
2022/10/04 04:15:32;;;;;;;4.20;1.70;;;10.20;99.90;;;;;;5000566;28;20048;-76
2022/10/04 04:18:01;;;;;;;;;;;10.20;99.90;;;;;;4992930;28;20381;-75
2022/10/04 04:20:31;;;;;;;4.50;2.08;;;10.10;99.90;;;;;;5003387;28;19917;-76
2022/10/04 04:23:00;;;;;;;4.95;1.58;;;10.10;99.90;;;;;;5015492;28;20038;-75
2022/10/04 04:25:28;;;;;;;4.13;2.55;;;10.10;99.90;;;;;;4983009;28;20069;-75
2022/10/04 04:28:13;;;;;;;3.35;1.48;;;10.00;99.90;;;;;;4978316;28;20033;-75
2022/10/04 04:30:45;;;;;;;3.03;1.70;;;10.00;99.90;;;;;;5015711;28;20041;-75
2022/10/04 04:33:23;;;;;;;3.42;2.13;;;10.00;99.90;;;;;;5001734;28;20157;-75
2022/10/04 04:35:54;;;;;;;4.25;2.83;;;10.00;99.90;;;;;;4999011;28;20453;-75
2022/10/04 04:38:23;;;;;;;5.88;2.20;;;9.90;99.90;;;;;;4994379;28;20068;-75
2022/10/04 04:40:54;;;;;;;5.85;1.67;;;9.90;99.90;;;;;;5000877;28;20040;-75
2022/10/04 04:43:25;;;;;;;2.95;1.60;;;9.90;99.90;;;;;;5000545;28;20488;-75
2022/10/04 04:45:52;;;;;;;4.10;2.28;;;9.80;99.90;;;;;;4997732;28;20033;-75
2022/10/04 04:48:20;;;;;;;3.67;2.00;;;9.80;99.90;;;;;;4996031;28;20034;-75
2022/10/04 04:50:56;;;;;;;4.30;2.35;;;9.70;99.90;;;;;;4999486;28;20049;-75
2022/10/04 04:53:29;;;;;;;3.72;2.40;;;9.70;99.90;;;;;;4998678;28;20050;-75
2022/10/04 04:55:58;;;;;;;2.92;1.92;;;9.70;99.90;;;;;;5000302;28;20029;-75
2022/10/04 04:58:42;;;;;;;5.72;2.50;;;9.70;99.90;;;;;;4977044;28;20050;-76
2022/10/04 05:01:22;;;;;;;3.28;2.30;;;9.70;99.90;;;;;;4997850;28;20046;-75
2022/10/04 05:04:07;;;;;;;4.75;3.40;;;9.60;99.90;;;;;;4998531;28;20030;-73
2022/10/04 05:06:36;;;;;;;3.70;2.42;;;9.60;99.90;;;;;;4985087;28;20037;-75
2022/10/04 05:09:04;;;;;;;4.50;2.45;;;9.50;99.90;;;;;;4995394;28;20460;-75
2022/10/04 05:11:33;;;;;;;5.45;3.00;;;9.50;99.90;;;;;;4998728;28;20052;-74
2022/10/04 05:14:06;;;;;;;6.82;3.75;;;9.50;99.90;;;;;;4998222;28;20034;-74
2022/10/04 05:16:32;;;;;;;;;;;9.50;99.90;;;;;;4995559;28;20073;-75
2022/10/04 05:19:07;;;;;;;4.57;2.65;;;9.50;99.90;;;;;;4997212;28;19921;-77
2022/10/04 05:21:34;;;;;;;4.97;2.47;;;9.50;99.90;;;;;;4996115;28;20038;-76
2022/10/04 05:24:23;;;;;;;6.10;4.20;;;9.40;99.90;;;;;;4998176;28;20037;-74
2022/10/04 05:27:12;;;;;;;6.30;4.28;;;9.50;99.90;;;;;;4994379;28;20041;-73
2022/10/04 05:29:56;;;;;;;6.45;4.78;;;9.40;99.90;;;;;;5001415;28;20033;-74
2022/10/04 05:32:38;;;;;;;11.15;6.03;;;9.50;99.90;;;;;;4999981;28;20030;-73
2022/10/04 05:35:15;;;;;;;10.95;6.57;;;9.40;99.90;;;;;;5016076;28;20053;-75
2022/10/04 05:38:15;;;;;;;7.82;5.20;;;9.50;99.90;;;;;;5015625;28;20041;-75
2022/10/04 05:40:55;;;;;;;9.27;4.85;;;9.50;99.90;;;;;;5002617;28;20049;-75
2022/10/04 05:43:37;;;;;;;7.45;4.50;;;9.50;99.90;;;;;;5016759;28;20038;-75
2022/10/04 05:46:09;;;;;;;7.05;4.93;;;9.50;99.90;;;;;;5017968;28;20049;-75
2022/10/04 05:48:36;;;;;;;6.43;4.50;;;9.40;99.90;;;;;;5003040;28;20037;-75
2022/10/04 05:51:17;;;;;;;5.35;4.35;;;9.40;99.90;;;;;;5003452;28;20054;-75
2022/10/04 05:53:43;;;;;;;5.25;4.57;;;9.40;99.90;;;;;;5001398;28;20073;-75
2022/10/04 05:56:31;;;;;;;7.28;5.10;;;9.50;99.90;;;;;;5003486;28;20041;-76
2022/10/04 05:59:21;;;;;;;7.47;6.07;;;9.40;99.90;;;;;;5015806;28;20045;-75
2022/10/04 06:01:58;;;;;;;6.90;4.20;;;9.40;99.90;;;;;;4986549;28;20053;-74
2022/10/04 06:04:54;;;;;;;11.23;5.22;;;9.40;99.90;;;;;;5016268;28;20422;-75
2022/10/04 06:07:38;;;;;;;6.35;5.47;;;9.50;99.90;;;;;;5001650;28;20397;-75
2022/10/04 06:10:31;;;;;;;7.00;5.55;;;9.50;99.90;;;;;;5001463;28;20049;-75
2022/10/04 06:13:18;;;;;;;6.13;4.80;;;9.50;99.90;;;;;;4998345;28;20576;-76
2022/10/04 06:16:10;;;;;;;7.18;5.65;;;9.50;99.90;;;;;;5001945;28;20042;-75
2022/10/04 06:19:14;;;;;;;10.00;5.40;;;9.50;99.90;;;;;;5000975;28;20046;-75
2022/10/04 06:21:56;;;;;;;7.68;4.93;;;9.50;99.90;;;;;;5016944;28;20050;-74
2022/10/04 06:24:33;;;;;;;7.15;4.75;;;9.50;99.90;;;;;;5001052;28;20710;-75
2022/10/04 06:27:09;;;;;;;5.70;4.60;;;9.50;99.90;;;;;;4999492;28;20044;-75
2022/10/04 06:29:41;;;;;;;6.43;5.65;;;9.50;99.90;;;;;;5001549;28;20041;-75
2022/10/04 06:32:10;;;;;;;8.90;5.55;;;9.50;99.90;;;;;;5002622;28;20038;-75
2022/10/04 06:35:02;;;;;;;7.95;5.32;;;9.60;99.90;;;;;;4999702;28;20241;-75
2022/10/04 06:37:49;;;;;;;11.32;6.28;;;9.60;99.90;;;;;;4999461;28;20042;-75
2022/10/04 06:40:54;;;;;;;13.35;5.65;;;9.60;99.90;;;;;;5016204;28;20831;-75
2022/10/04 06:43:49;;;;;;;7.43;4.55;;;9.70;99.90;;;;;;4981939;28;20069;-75
2022/10/04 06:46:41;;;;;;;6.70;4.68;;;9.70;99.90;;;;;;5003325;28;20053;-75
2022/10/04 06:49:32;;;;;;;7.40;4.50;;;9.80;99.90;;;;;;5000439;28;20847;-75
2022/10/04 06:52:07;;;;;;;6.68;4.10;;;9.80;99.90;;;;;;5004200;28;20049;-75
2022/10/04 06:54:58;;;;;;;7.03;4.85;;;9.80;99.90;;;;;;5001394;28;20049;-74
2022/10/04 06:57:42;;;;;;;9.13;6.18;;;9.80;99.90;;;;;;4999529;28;20045;-75
2022/10/04 07:00:08;;;;;;;8.85;5.68;;;9.80;99.90;;;;;;4997683;28;20584;-75
2022/10/04 07:02:47;;;;;;;8.45;5.55;;;9.80;99.90;;;;;;4983882;28;20088;-75
2022/10/04 07:05:42;;;;;;;6.40;5.28;;;9.80;99.90;;;;;;5001544;28;20041;-76
2022/10/04 07:08:29;;;;;;;8.70;5.85;;;9.80;99.90;;;;;;4984134;28;20034;-76
2022/10/04 07:11:04;;;;;;;5.43;3.72;;;9.80;99.90;;;;;;4998581;28;20543;-76
2022/10/04 07:13:43;;;;;;;7.25;5.18;;;9.80;99.90;;;;;;4997065;28;20060;-74
2022/10/04 07:16:15;;;;;;;7.85;5.97;;;9.90;99.90;;;;;;5000070;28;20052;-75
2022/10/04 07:19:19;;;;;;;8.88;5.25;;;9.90;99.90;;;;;;4999282;28;20042;-75
2022/10/04 07:21:58;;;;;;;5.82;5.20;;;10.00;99.90;;;;;;4983404;28;20379;-75
2022/10/04 07:24:54;;;;;;;8.52;6.35;;;10.00;99.90;;;;;;4999973;28;20050;-75
2022/10/04 07:27:31;;;;;;;6.40;5.25;;;10.10;99.90;;;;;;4999770;28;20049;-75
2022/10/04 07:30:02;;;;;;;7.10;5.10;;;10.10;99.90;;;;;;5000623;28;20042;-75
2022/10/04 07:32:35;;;;;;;9.57;6.57;;;10.20;99.90;;;;;;5001721;28;20423;-75
2022/10/04 07:35:12;;;;;;;;;;;10.40;99.90;;;;;;5001773;28;20052;-75
2022/10/04 07:37:56;;;;;;;5.97;4.15;;;10.50;99.90;;;;;;4985641;28;20493;-75
2022/10/04 07:40:34;;;;;;;6.63;5.25;;;10.60;99.90;;;;;;5001449;28;20045;-75
2022/10/04 07:43:21;;;;;;;9.25;6.07;;;10.70;99.90;;;;;;5003775;28;20050;-75
2022/10/04 07:45:48;;;;;;;8.38;6.30;;;10.90;99.90;;;;;;5001055;28;20476;-75
2022/10/04 07:48:22;;;;;;;9.85;6.45;;;11.00;99.90;;;;;;5014772;28;20064;-75
2022/10/04 07:50:57;;;;;;;7.43;5.75;;;11.20;99.90;;;;;;4998963;28;20512;-75
2022/10/04 07:53:50;;;;;;;9.68;5.88;;;11.40;99.90;;;;;;4985141;28;20038;-74
2022/10/04 07:56:27;;;;;;;9.30;6.82;;;11.50;99.90;;;;;;5016235;28;20044;-75
2022/10/04 07:59:03;;;;;;;8.95;6.10;;;11.70;99.90;;;;;;4996643;28;20049;-75
2022/10/04 08:01:46;;;;;;;7.47;5.93;;;11.80;99.90;;;;;;4983298;28;20061;-76
2022/10/04 08:04:12;;;;;;;9.98;6.68;;;11.90;99.90;;;;;;5001009;28;20033;-75
2022/10/04 08:06:56;;;;;;;13.02;7.28;;;11.90;99.90;;;;;;5008665;28;20038;-75
2022/10/04 08:09:36;;;;;;;7.97;6.00;;;12.00;99.90;;;;;;4998699;28;20033;-75
2022/10/04 08:12:03;;;;;;;9.23;6.38;;;12.10;99.90;;;;;;5004274;28;20034;-74
2022/10/04 08:14:51;;;;;;;9.45;6.47;;;12.30;99.90;;;;;;4998944;28;20044;-75
2022/10/04 08:17:29;;;;;;;8.35;6.47;;;12.40;99.90;;;;;;5014431;28;20050;-75
2022/10/04 08:19:58;;;;;;;7.97;4.97;;;12.50;99.90;;;;;;5000043;28;20048;-75
2022/10/04 08:22:42;;;;;;;9.90;6.35;;;12.60;99.90;;;;;;5013205;28;20053;-75
2022/10/04 08:25:26;;;;;;;11.07;6.88;;;12.70;99.90;;;;;;5000620;28;20038;-75
2022/10/04 08:31:13;;;;;;;6.13;4.25;;;12.90;99.90;;;;;;5015441;28;20042;-74
2022/10/04 08:33:56;;;;;;;7.72;4.43;;;13.10;99.90;;;;;;5000172;28;20049;-75
2022/10/04 08:36:26;;;;;;;;;;;13.30;99.90;;;;;;4983647;28;20033;-74
2022/10/04 08:38:56;;;;;;;11.48;5.90;;;13.40;99.90;;;;;;5001176;28;20375;-74
2022/10/04 08:41:40;;;;;;;8.10;4.63;;;13.50;99.90;;;;;;4982986;28;20041;-74
2022/10/04 08:44:44;;;;;;;7.60;4.28;;;13.70;99.90;;;;;;5015107;28;20049;-74
2022/10/04 08:47:36;;;;;;;9.60;5.10;;;13.80;99.90;;;;;;4997658;28;20413;-74
2022/10/04 08:50:33;;;;;;;6.13;3.85;;;13.90;99.90;;;;;;4998598;28;20117;-74
2022/10/04 08:53:43;;;;;;;8.00;5.43;;;13.90;99.90;;;;;;4997505;28;20057;-74
2022/10/04 08:56:47;;;;;;;15.27;7.05;;;13.90;99.90;;;;;;4999759;28;20385;-74
2022/10/04 08:59:32;;;;;;;10.75;5.28;;;14.00;99.90;;;;;;5013656;28;20045;-75
2022/10/04 09:02:19;;;;;;;9.15;5.18;;;14.10;99.90;;;;;;4996750;28;20422;-74
2022/10/04 09:05:17;;;;;;;7.68;4.00;;;14.30;99.90;;;;;;4999808;28;20468;-74
2022/10/04 09:07:56;;;;;;;5.90;3.75;;;14.40;99.90;;;;;;4989139;28;20621;-75
2022/10/04 09:10:57;;;;;;;5.80;3.15;;;14.50;99.90;;;;;;4998948;28;20053;-74
2022/10/04 09:13:53;;;;;;;9.35;4.80;;;14.60;99.90;;;;;;4999789;28;20480;-74
2022/10/04 09:17:04;;;;;;;11.05;4.68;;;14.70;99.90;;;;;;4999568;28;20432;-74
2022/10/04 09:19:49;;;;;;;6.80;4.15;;;14.80;99.90;;;;;;5011485;28;20038;-74
2022/10/04 09:22:35;;;;;;;6.80;3.92;;;14.90;99.90;;;;;;4998588;28;20053;-74
2022/10/04 09:25:16;;;;;;;4.05;2.38;;;15.00;99.90;;;;;;5012564;28;20034;-73
2022/10/04 09:28:28;;;;;;;8.40;4.20;;;15.00;99.90;;;;;;4996092;28;21037;-73
2022/10/04 09:31:28;;;;;;;6.72;3.50;;;15.10;99.90;;;;;;4999129;28;20053;-73
2022/10/04 09:34:16;;;;;;;9.05;3.78;;;15.30;99.90;;;;;;5014167;28;20402;-73
2022/10/04 09:37:13;;;;;;;10.13;4.82;;;15.40;99.90;;;;;;5014193;28;20046;-73
2022/10/04 09:40:16;;;;;;;8.20;3.50;;;15.60;99.90;;;;;;4997669;28;20532;-73
2022/10/04 09:43:01;;;;;;;9.00;5.90;;;15.60;99.90;;;;;;4999358;28;20060;-74
2022/10/04 09:46:03;;;;;;;11.00;4.78;;;15.70;99.90;;;;;;4982045;28;20048;-74
2022/10/04 09:48:35;;;;;;;7.95;3.90;;;15.80;99.90;;;;;;4996523;28;20489;-74
2022/10/04 09:51:39;;;;;;;8.68;4.13;;;16.00;99.90;;;;;;4999489;28;20513;-73
2022/10/04 09:54:44;;;;;;;5.90;3.28;;;16.10;99.90;;;;;;5014237;28;20057;-74
2022/10/04 09:57:28;;;;;;;7.95;3.03;;;16.30;99.90;;;;;;5012499;28;20471;-74
2022/10/04 10:00:09;;;;;;;9.32;4.78;;;16.60;99.90;;;;;;4998072;28;20033;-74
2022/10/04 10:03:07;;;;;;;4.97;3.30;;;16.90;99.90;;;;;;5000391;28;20579;-74
2022/10/04 10:05:54;;;;;;;5.78;2.30;;;17.20;99.90;;;;;;4983331;28;20049;-74
2022/10/04 10:08:39;;;;;;;5.22;2.03;;;17.60;99.90;;;;;;4982676;28;20038;-75
2022/10/04 10:14:51;;;;;;;3.85;1.83;;;18.40;99.90;;;;;;5001084;28;20404;-74
2022/10/04 10:17:29;;;;;;;6.15;2.45;;;18.80;99.90;;;;;;4985287;28;21001;-73
2022/10/04 10:20:18;;;;;;;4.80;1.70;;;19.10;99.90;;;;;;5001221;28;20308;-74
2022/10/04 10:23:09;;;;;;;6.47;2.88;;;19.50;99.90;;;;;;5003415;28;20046;-74
2022/10/04 10:25:53;;;;;;;5.90;2.80;;;19.80;99.90;;;;;;5002285;28;20440;-74
2022/10/04 10:28:50;;;;;;;4.68;2.28;;;20.10;99.90;;;;;;4997630;28;20030;-74
2022/10/04 10:31:16;;;;;;;5.10;1.90;;;20.40;99.90;;;;;;5002721;28;20030;-74
2022/10/04 10:34:04;;;;;;;5.50;2.05;;;20.80;99.90;;;;;;4984930;28;20041;-74
2022/10/04 10:36:53;;;;;;;5.10;1.95;;;21.10;99.90;;;;;;5001487;28;20041;-74
2022/10/04 10:39:46;;;;;;;5.57;1.58;;;21.50;99.90;;;;;;4982574;28;20053;-74
2022/10/04 10:42:34;;;;;;;6.38;1.63;;;21.90;99.90;;;;;;4949719;28;20069;-74
2022/10/04 10:45:22;;;;;;;6.13;1.60;;;22.20;99.90;;;;;;4983893;28;20037;-74
2022/10/04 10:47:58;;;;;;;3.47;1.42;;;22.40;99.90;;;;;;4998852;28;20037;-74
2022/10/04 10:51:02;;;;;;;4.88;1.30;;;22.70;99.90;;;;;;5001175;28;20038;-74
2022/10/04 10:54:04;;;;;;;3.97;1.27;;;23.00;99.90;;;;;;5001244;28;20072;-74
2022/10/04 10:56:36;;;;;;;3.85;1.50;;;23.40;99.90;;;;;;4999834;28;20033;-74
2022/10/04 10:59:21;;;;;;;;;;;23.70;99.90;;;;;;4980339;28;20044;-74
2022/10/04 11:02:15;;;;;;;4.38;1.00;;;24.00;99.90;;;;;;5003605;28;19937;-74
2022/10/04 11:04:54;;;;;;;4.70;1.48;;;24.20;99.80;;;;;;5001484;28;20038;-74
2022/10/04 11:07:50;;;;;;;4.03;1.50;;;24.40;98.70;;;;;;5000624;28;20045;-75
2022/10/04 11:10:58;;;;;;;3.75;1.50;;;24.50;97.40;;;;;;5001492;28;20063;-75
2022/10/04 11:14:11;;;;;;;3.28;1.02;;;24.60;96.80;;;;;;5007886;28;20049;-73
2022/10/04 11:17:02;;;;;;;7.20;3.10;;;24.80;96.50;;;;;;4998811;28;20586;-75
2022/10/04 11:19:42;;;;;;;4.17;2.13;;;25.00;95.50;;;;;;4999475;28;20042;-75
2022/10/04 11:22:17;;;;;;;4.22;2.10;;;24.70;95.30;;;;;;5000915;28;20057;-75
2022/10/04 11:25:12;;;;;;;5.13;2.45;;;23.90;95.00;;;;;;4983328;28;20042;-75
2022/10/04 11:27:57;;;;;;;6.30;3.50;;;23.20;95.50;;;;;;5014332;28;20492;-75
2022/10/04 11:30:38;;;;;;;8.90;5.75;;;22.40;95.80;;;;;;5001246;28;20034;-73
2022/10/04 11:33:16;;;;;;;9.73;5.18;;;22.10;96.40;;;;;;4998282;28;20042;-75
2022/10/04 11:36:12;;;;;;;9.32;4.47;;;22.00;96.00;;;;;;5000914;28;20046;-75
2022/10/04 11:39:04;;;;;;;7.35;3.28;;;21.80;96.00;;;;;;4996728;28;20034;-74
2022/10/04 11:41:53;;;;;;;9.55;4.53;;;21.50;96.20;;;;;;4997795;28;20417;-75
2022/10/04 11:44:20;;;;;;;6.25;1.63;;;21.50;96.60;;;;;;5000496;28;20423;-75
2022/10/04 11:47:21;;;;;;;6.85;2.95;;;22.10;96.40;;;;;;5014608;28;20050;-75
2022/10/04 11:50:21;;;;;;;5.85;1.88;;;23.00;95.50;;;;;;4994626;28;20056;-75
2022/10/04 11:53:02;;;;;;;4.63;1.77;;;23.90;93.90;;;;;;4999447;28;20909;-75
2022/10/04 11:55:53;;;;;;;3.05;1.30;;;24.50;93.50;;;;;;4982703;28;20523;-75
2022/10/04 11:58:32;;;;;;;4.22;1.23;;;25.10;92.70;;;;;;5013298;28;20049;-75
2022/10/04 12:01:18;;;;;;;2.90;1.55;;;25.60;92.30;;;;;;4998530;28;20305;-75
2022/10/04 12:04:02;;;;;;;3.63;1.33;;;26.40;91.40;;;;;;4998675;28;20065;-75
2022/10/04 12:07:02;;;;;;;5.07;1.48;;;26.90;89.90;;;;;;5000167;28;20034;-75
2022/10/04 12:09:57;;;;;;;5.18;1.30;;;26.90;86.70;;;;;;4998599;28;20044;-75
2022/10/04 12:12:46;;;;;;;3.90;1.45;;;27.20;84.50;;;;;;5000734;28;20053;-75
2022/10/04 12:15:37;;;;;;;4.18;1.10;;;27.20;84.20;;;;;;4999693;28;20044;-75
2022/10/04 12:18:32;;;;;;;3.60;1.45;;;27.10;83.10;;;;;;5005704;28;20033;-76
2022/10/04 12:21:37;;;;;;;3.88;1.30;;;26.80;81.90;;;;;;4995528;28;20037;-75
2022/10/04 12:24:33;;;;;;;3.08;1.10;;;26.70;81.40;;;;;;4997291;28;20063;-75
2022/10/04 12:27:24;;;;;;;5.70;1.15;;;26.70;81.30;;;;;;4997068;28;20124;-75
2022/10/04 12:30:19;;;;;;;2.28;0.90;;;26.30;80.20;;;;;;4996186;28;20045;-74
2022/10/04 12:33:03;;;;;;;4.72;1.70;;;26.20;80.70;;;;;;5014059;28;20042;-74
2022/10/04 12:35:51;;;;;;;6.45;2.88;;;25.60;78.50;;;;;;4997216;28;20038;-75
2022/10/04 12:38:37;;;;;;;6.38;3.30;;;25.00;80.70;;;;;;5009672;28;20456;-75
2022/10/04 12:41:17;;;;;;;16.88;10.05;;;26.00;80.90;;;;;;4996632;28;20041;-75
2022/10/04 12:44:06;;;;;;;7.63;3.50;;;27.10;78.90;;;;;;4997491;28;20041;-76
2022/10/04 12:46:53;;;;;;;7.15;2.05;;;27.60;77.40;;;;;;4997563;28;20594;-75
2022/10/04 12:49:55;;;;;;;4.10;1.20;;;27.70;75.70;;;;;;4975956;28;20057;-75
2022/10/04 12:52:29;;;;;;;4.70;1.10;;;28.10;75.80;;;;;;4997984;28;20046;-75
2022/10/04 12:55:27;;;;;;;9.65;6.13;;;28.70;75.10;;;;;;4999535;28;20034;-75
2022/10/04 12:58:03;;;;;;;11.10;8.13;;;28.90;73.10;;;;;;4966129;28;20061;-75
2022/10/04 13:00:35;;;;;;;6.78;4.28;;;28.10;72.40;;;;;;4997847;28;20050;-75
2022/10/04 13:03:08;;;;;;;2.70;1.55;;;27.10;73.40;;;;;;5011260;28;20061;-74
2022/10/04 13:05:41;;;;;;;3.53;1.45;;;26.20;74.20;;;;;;4996130;28;20030;-73
2022/10/04 13:08:15;;;;;;;3.70;1.60;;;25.40;75.30;;;;;;4994647;28;20480;-75
2022/10/04 13:11:30;;;;;;;6.20;0.90;;;25.00;76.30;;;;;;4994245;28;20658;-74
2022/10/04 13:14:27;;;;;;;3.28;0.80;;;24.40;76.50;;;;;;4993790;28;20041;-75
2022/10/04 13:17:10;;;;;;;2.88;0.68;;;23.80;78.00;;;;;;4994017;28;20034;-75
2022/10/04 13:20:21;;;;;;;6.25;1.25;;;23.30;79.10;;;;;;4995891;28;20034;-75
2022/10/04 13:23:10;;;;;;;3.85;1.20;;;22.70;79.90;;;;;;4990993;28;20049;-74
2022/10/04 13:25:59;;;;;;;5.45;1.27;;;22.00;79.90;;;;;;5009253;28;20037;-74
2022/10/04 13:28:30;;;;;;;3.63;1.08;;;21.40;81.30;;;;;;4994830;28;20038;-75
2022/10/04 13:31:11;;;;;;;2.67;0.82;;;21.00;82.60;;;;;;4995424;28;20039;-75
2022/10/04 13:33:47;;;;;;;2.70;0.70;;;20.70;83.80;;;;;;4995296;28;20033;-76
2022/10/04 13:36:29;;;;;;;3.88;1.17;;;20.50;85.10;;;;;;4996883;28;20041;-75
2022/10/04 13:39:06;;;;;;;;;;;20.20;85.30;;;;;;4991749;28;20038;-76
2022/10/04 13:41:56;;;;;;;4.57;0.98;;;20.00;85.60;;;;;;4980451;28;19921;-75
2022/10/04 13:44:44;;;;;;;2.95;0.90;;;19.80;86.30;;;;;;5007943;28;20658;-75
2022/10/04 13:47:30;;;;;;;3.22;0.82;;;19.60;86.90;;;;;;4998367;28;20393;-75
2022/10/04 13:50:32;;;;;;;5.03;1.80;;;19.50;87.80;;;;;;4998691;28;20033;-75
2022/10/04 13:57:04;;;;;;;2.25;0.70;;;19.30;88.70;;;;;;4981923;28;20041;-75
2022/10/04 13:59:40;;;;;;;3.20;1.27;;;19.20;89.40;;;;;;4985885;28;20050;-75
2022/10/04 14:02:25;;;;;;;3.92;0.90;;;19.20;90.00;;;;;;4998869;28;20054;-76
2022/10/04 14:05:16;;;;;;;9.60;3.65;;;19.20;90.20;;;;;;5000763;28;20052;-75
2022/10/04 14:07:45;;;;;;;4.05;1.90;;;19.20;90.30;;;;;;4998632;28;20115;-75
2022/10/04 14:10:29;;;;;;;9.07;5.53;;;19.30;90.30;;;;;;4999744;28;20481;-74
2022/10/04 14:13:23;;;;;;;5.07;3.08;;;19.30;90.30;;;;;;5002153;28;20030;-74
2022/10/04 14:16:13;;;;;;;7.03;2.70;;;19.30;90.40;;;;;;5001551;28;20042;-75
2022/10/04 14:18:39;;;;;;;4.28;1.70;;;19.40;90.70;;;;;;5014261;28;20405;-75